Tuesday, September 23, 2014
00:22 UTC
  |  Log In   |  Register Free
Airport Search:

Ormond Beach Municipal Airport
(KOMN)

FAA data valid effective September 18, 2014 - November 13, 2014 (unless otherwise noted).

 
 
 
 
 
 
 
 
 
 
 
 
 
 

Current Aviation Weather for Ormond Beach Municipal Airport (KOMN)

The most recent METAR observation for KOMN was updated at: 0013
METAR Summary (Translated METAR)
KOMN
222250Z 04004KT 5SM -RA BKN020 22/21 A2998 RMK LAST
KDAB
222353Z 18005KT 10SM FEW007 SCT017 OVC100 23/21 A3002 RMK AO2 RAE2257 TSE20 SLP165 TS MOVD NE FRQ LTGIC DSNT NE-SE CB DSNT NE-SE P0000 60036 T02280211 10278 20222 53011
(7.8 nm SE from KOMN)
KXFL
222355Z AUTO 20003KT 23/22 A3001 RMK AO2 LTG DSNT ALQS 60001 T02260216 10290 20226 PWINO
(11.1 nm NW from KOMN)
TAF Summary (Translated TAF)
KDAB
(7.8 nm SE from KOMN)
222101Z 2221/2318 VRB06KT P6SM VCTS SCT020CB BKN050 OVC100 TEMPO 2221/2224 3SM TSRA BKN025CB OVC040 FM230000 12004KT 6SM -RA SCT050 BKN150 FM230400 VRB03KT P6SM VCSH FEW030 SCT050 BKN250
  Airport Weather Conditions for KOMN

 Current Weather at OMN
72° F
Light Rain
Northeast winds at 4.6 mph
OMN NOAA Radar

Pressure: 29.98 in
Humidity: 94%
Wind: Northeast at 4.6 MPH (4 KT)
Dew Point: 69.8°F
Visibility: 5.00 mi


Airport Weather Forecast for KOMN

Translated METAR and TAF for KOMN
Translated METAR for KOMN (0016 UTC 23 September 2014)
found at http://aviationweather.gov/adds/metars/
 
METAR text: KOMN 222250Z 04004KT 5SM -RA BKN020 22/21 A2998 RMK LAST
Conditions at: KOMN (ORMOND BEACH VOR, FL, US) observed 2250 UTC 22 September 2014
Temperature: 22.0°C (72°F)
Dewpoint: 21.0°C (70°F) [RH = 94%]
Pressure (altimeter): 29.98 inches Hg (1015.3 mb)
Winds: from the NE (40 degrees) at 5 MPH (4 knots; 2.1 m/s)
Visibility: 5 miles (8 km)
Ceiling: 2000 feet AGL
Clouds: broken clouds at 2000 feet AGL
Weather: -RA  (light rain)
Translated TAF for KOMN

There is no translated TAF available for this airport

Find All Airport Services Find A Hotel Find A Rental Car Find A Golf Course Find A Restaurant $100 Hamburger



FBO's on the Field
FBO Company Facility Photos Services Transportation Aviation Fuel Prices: Prices include tax
Catering Weather Repair Courtesy Rental Type 100LL JetA JetA+ MOGAS 8087
 
Sunrise Aviation

Currently rated 1 by 2 people
FS:Shell
Last Updated: Aug-14
Login to update fuel prices
SS:
Contact Sunrise AviationMore FBO Information
 
Add another FBO Facility Photos Catering Weather Repair Courtesy Rental Type 100LL JetA JetA+ MOGAS 8087
Services Transportation Aviation Fuel Prices: Prices include tax


model-print
model-print
model-print
model-print